Архив погоды в Анабаре

Метеограмма Анабар
Пятница, 22 Июня
Время местн. Темп Ветер Видим Явления Облачность нижн/средн/верх Атм. давл. Влжн Точка росы ВНГО R Сост. почвы Tg s
Напр Скр Прв ур.ст ур.м изм
09:00 +4.8° В 9 13 20 км небо без изменений {дождь} облачно 754 756 -0.6 86% +2.6° 600 м 13 Сырая (есть малые или большие лужи) +4° -
06:00 +3.5° В 10 13 10 км слабый непрерывный дождь облачно 755 756 -0.8 85% +1.2° 600 м - - - -
03:00 +3.9° В 11 13 4 км умеренный дождь с перерывами облачно 756 757 -0.2 87% +1.9° 600 м - - - -
00:00 +4.2° В 7 11 10 км слабый дождь с перерывами облачно 756 757 -0.2 87% +2.2° 600 м - - - -
Четверг, 21 Июня
Время местн. Темп Ветер Видим Явления Облачность нижн/средн/верх Атм. давл. Влжн Точка росы ВНГО R Сост. почвы Tg s
Напр Скр Прв ур.ст ур.м изм
21:00 +6.9° В 10 12 20 км - облачно 756 757 0 82% +4.1° 600 м 0 - - -
15:00 +10.4° С-В 8 10 20 км - облачно 757 758 -0.8 74% +5.9° 600 м - - - -
12:00 +6.9° В 7 - 20 км - облачно 758 759 -0.4 79% +3.6° 600 м - - - -
09:00 +4.2° В 7 - 20 км - облачно 758 759 +0.1 85% +1.9° 600 м 0 Влажная (без луж) - -
06:00 +3.2° В 8 10 20 км - облачно 758 759 -0.2 86% +1.1° 600 м - - - -
03:00 +2.6° В 8 11 4 км дымка облачно 758 759 +0.2 87% +0.7° 600 м - - - -
00:00 +2.4° В 9 11 4 км дымка облачно 758 759 0 87% +0.5° 600 м - - - -
Среда, 20 Июня
Время местн. Темп Ветер Видим Явления Облачность нижн/средн/верх Атм. давл. Влжн Точка росы ВНГО R Сост. почвы Tg s
Напр Скр Прв ур.ст ур.м изм
21:00 +3.4° В 7 - 20 км - облачно 758 759 +0.5 86% +1.3° 600 м 0 - - -
18:00 +5.2° В 8 - 20 км - преимущественно облачно 758 759 -0.1 81% +2.2° 600 м - - - -
15:00 +5.6° В 7 - 20 км - преимущественно облачно 758 759 +0.2 80% +2.4° 600 м - - - -
12:00 +6° С 6 - 20 км - облачно с прояснениями 757 759 +0.2 79% +2.6° 600 м - - - -
09:00 +3.7° С 4 - 4 км дымка облачно 757 758 +0.2 87% +1.7° 600 м 0 Влажная (без луж) +3° -
06:00 +2.6° С 5 - 4 км дымка облачно 757 758 +0.6 87% +0.7° 600 м - - - -
00:00 +2.7° С 7 - 4 км дымка облачно 756 757 +0.2 88% +0.9° 600 м - - - -
Вторник, 19 Июня
Время местн. Темп Ветер Видим Явления Облачность нижн/средн/верх Атм. давл. Влжн Точка росы ВНГО R Сост. почвы Tg s
Напр Скр Прв ур.ст ур.м изм
21:00 +8.8° С 7 - 20 км - переменная облачность 756 757 +0.5 74% +4.5° 600 м 0 - - -
18:00 +10.7° С 5 - 20 км - переменная облачность 755 756 +0.5 73% +6° более 2.5 км - - - -
15:00 +8.4° С 7 - 20 км - переменная облачность 755 756 +0.4 74% +4° более 2.5 км - - - -
12:00 +7.9° С 6 - 20 км - переменная облачность 754 755 -0.5 75% +3.7° 1 км - - - -
09:00 +6.6° С 2 - 20 км - переменная облачность 755 756 -0.2 77% +2.8° 600 м 0 Влажная (без луж) +4° -
06:00 +3.7° С 6 - 4 км дымка облачно 755 756 -0.2 88% +1.9° 600 м - - - -
00:00 +6.6° В 5 - 20 км - преимущественно облачно 755 756 +0.2 83% +4° 600 м - - - -
Понедельник, 18 Июня
Время местн. Темп Ветер Видим Явления Облачность нижн/средн/верх Атм. давл. Влжн Точка росы ВНГО R Сост. почвы Tg s
Напр Скр Прв ур.ст ур.м изм
21:00 +8.6° В 2 - 20 км - облачно 755 756 +0.3 77% +4.8° 600 м 0 - - -